Date,TemperatureHighF,TemperatureAvgF,TemperatureLowF,DewpointHighF,DewpointAvgF,DewpointLowF,HumidityHigh,HumidityAvg,HumidityLow,PressureMaxIn,PressureMinIn,WindSpeedMaxMPH,WindSpeedAvgMPH,GustSpeedMaxMPH,PrecipitationSumIn
2013-2-28,35,31,29,4,-5,-42,33,8,3,29.80,29.76,10,4,15,0.02
2013-3-1,34,31,29,34,17,-5,100,61,22,29.87,29.75,13,4,16,0.06
2013-3-2,37,32,30,36,21,-47,100,65,2,29.86,29.82,13,5,19,0.05
2013-3-3,41,34,30,36,18,-40,96,52,3,29.82,29.72,13,4,17,0.19
2013-3-4,34,30,29,32,28,23,100,90,72,29.91,29.70,18,8,25,0.01
2013-3-5,44,36,31,41,33,15,100,89,51,30.35,29.91,13,5,20,0.05
2013-3-6,37,33,30,35,30,20,100,88,58,30.48,30.35,18,8,28,0.02
2013-3-7,34,31,29,27,24,22,88,77,65,30.44,30.32,20,8,25,0.00
2013-3-8,47,36,28,27,22,16,90,59,30,30.45,30.28,16,7,25,0.00
2013-3-9,52,37,26,26,23,16,95,58,27,30.58,30.41,12,4,17,0.00
2013-3-10,45,32,20,33,26,12,100,81,47,30.63,30.49,11,3,18,0.00
2013-3-11,46,37,32,39,33,25,100,85,57,30.49,30.35,15,5,17,0.00
2013-3-12,48,43,39,28,4,-1,62,10,17,30.35,29.99,15,6,22,0.90
2013-3-13,48,41,30,37,15,-17,86,35,8,29.99,29.91,14,5,19,0.02
2013-3-14,36,29,18,28,17,-40,87,62,4,29.93,29.83,19,8,26,0.00
2013-3-15,34,23,13,24,10,6,89,61,32,29.96,29.79,16,6,22,0.00
2013-3-16,30,25,18,24,13,7,97,62,38,30.07,29.80,16,6,21,0.00
2013-3-17,25,20,12,15,3,-4,100,50,30,30.44,30.06,28,8,31,0.00
2013-3-18,34,24,9,17,2,-4,83,41,21,30.60,30.45,10,3,17,0.00
2013-3-19,25,22,20,21,-2,-36,87,41,6,30.45,29.90,19,6,28,0.00
2013-3-20,32,25,17,28,11,-8,94,57,28,29.90,29.77,17,5,28,0.12
2013-3-21,40,32,20,21,14,9,100,51,29,29.95,29.81,10,4,15,0.00
2013-3-22,37,28,19,20,16,12,97,64,37,29.83,29.80,13,4,20,0.00
2013-3-23,37,31,23,29,22,16,91,71,51,29.85,29.69,25,11,34,0.00
2013-3-24,43,36,29,29,26,22,97,67,45,30.00,29.84,19,8,26,0.00
2013-3-25,42,35,26,34,26,4,97,71,36,29.98,29.84,14,5,20,0.00
2013-3-26,47,38,30,31,26,22,92,64,40,29.95,29.79,13,7,24,0.00
2013-3-27,43,36,29,38,23,0,95,61,28,30.09,29.90,17,5,19,0.10
2013-3-28,52,42,34,39,20,-5,83,40,17,30.20,30.09,11,5,22,0.00
2013-3-29,51,46,38,38,32,28,83,60,43,30.25,30.20,14,8,22,0.00
2013-3-30,37,37,37,32,32,32,81,81,81,30.22,30.22,2,2,2,0.00
2013-3-31,48,43,41,36,31,20,79,65,33,30.23,30.08,10,6,19,1.37
2013-4-1,50,38,31,42,15,0,82,33,35,30.08,29.74,18,7,23,4.90
2013-4-2,32,28,23,25,14,8,87,57,38,29.98,29.88,16,8,28,0.00
2013-4-3,37,32,25,21,15,8,83,51,40,30.21,29.98,31,12,37,0.00
2013-4-4,50,37,28,28,13,6,75,39,20,30.40,30.17,17,8,26,0.00
2013-4-5,53,43,33,30,25,20,83,51,29,30.15,29.95,19,8,28,0.00
2013-4-6,36,30,22,20,6,0,66,37,24,30.52,30.04,25,10,40,0.00
2013-4-7,44,35,22,37,24,10,90,66,38,30.52,30.16,22,6,28,0.00
2013-4-8,55,44,36,39,35,31,85,71,44,30.37,30.13,18,5,26,0.00
2013-4-9,41,38,35,32,4,-45,83,15,2,30.35,30.15,6,2,13,0.20
2013-4-10,53,46,38,44,20,-55,79,43,1,30.23,30.15,10,3,18,0.11
2013-4-11,48,42,34,34,16,-53,77,37,1,30.41,30.12,17,4,17,0.00
2013-4-12,35,32,31,25,10,0,71,33,44,30.47,30.14,12,4,16,0.21
2013-4-13,44,36,30,34,8,-43,69,20,2,30.13,30.02,7,1,11,0.25
2013-4-14,48,41,34,42,16,0,81,31,17,30.39,30.11,9,3,17,0.18
2013-4-15,55,45,30,41,26,-3,79,49,22,30.64,30.40,10,5,19,0.00
2013-4-16,52,46,38,44,22,-35,81,39,2,30.64,30.20,21,7,28,0.01
2013-4-17,56,49,41,40,26,-35,77,45,2,30.60,30.22,21,8,27,0.01
2013-4-18,47,42,31,40,24,-4,79,51,21,30.71,30.39,15,6,23,0.00
2013-4-19,67,56,46,58,24,-37,81,37,2,30.37,29.93,20,10,28,0.00
2013-4-20,59,50,41,40,16,-40,71,27,2,30.39,29.89,17,8,25,0.44
2013-4-21,48,39,31,27,19,12,72,47,26,30.91,30.40,15,7,23,0.00
2013-4-22,52,39,26,34,18,-2,81,46,20,31.06,30.89,16,4,17,0.00
2013-4-23,48,37,27,41,11,-31,79,26,5,30.88,30.51,10,3,16,0.00
2013-4-24,62,47,41,54,9,-11,76,13,7,30.48,30.07,13,5,17,0.01
2013-4-25,57,50,41,33,20,0,71,29,33,30.55,30.02,13,4,17,0.05
2013-4-26,61,47,32,38,24,-8,81,42,14,30.74,30.55,10,3,15,0.00
2013-4-27,63,49,34,40,22,-44,76,34,2,30.71,30.60,12,3,16,0.00
2013-4-28,66,58,45,36,32,27,72,39,29,30.61,30.54,12,6,22,0.00
2013-4-29,65,50,36,47,29,-9,80,44,12,30.59,30.48,16,4,17,0.00
2013-4-30,70,54,38,47,22,-41,77,28,2,30.67,30.50,15,3,17,0.00
2013-5-1,75,57,38,43,27,0,77,30,22,30.80,30.64,12,2,15,0.00
2013-5-2,68,54,42,48,30,-37,77,42,2,30.81,30.68,10,3,16,0.00
2013-5-3,66,52,39,46,29,-26,75,41,5,30.87,30.74,11,4,15,0.00
2013-5-4,68,57,41,46,32,13,76,44,16,30.70,30.61,10,6,20,0.00
2013-5-5,69,51,35,44,22,-17,77,30,8,30.62,30.52,14,6,17,0.00
2013-5-6,69,53,38,47,22,-50,75,28,1,30.58,30.45,12,5,19,0.00
2013-5-7,75,58,43,55,22,0,75,23,19,30.50,30.42,12,4,20,0.00
2013-5-8,74,61,50,62,22,0,73,24,13,30.60,30.46,14,4,21,0.01
2013-5-9,61,57,54,0,0,0,0,0,100,30.47,30.25,8,3,11,0.60
2013-5-10,70,61,53,61,16,-12,73,17,4,30.31,30.22,8,3,13,0.02
2013-5-11,61,56,52,0,0,0,0,0,100,30.27,30.02,10,5,15,0.60
2013-5-12,61,56,44,42,3,-29,64,6,2,30.03,29.89,10,3,26,0.57
2013-5-13,54,46,37,38,20,-55,75,38,1,30.29,30.01,13,5,19,0.01
2013-5-14,55,46,37,40,30,24,78,56,33,30.32,30.25,11,5,20,0.00
2013-5-15,61,48,35,40,15,0,71,21,22,30.31,29.96,19,5,22,0.29
2013-5-16,50,49,49,0,0,0,0,0,100,29.95,29.92,14,8,15,0.00
2013-5-17,60,53,44,45,25,-25,78,38,4,30.48,30.41,15,2,23,0.00
2013-5-18,63,51,38,52,26,-2,77,39,13,30.66,30.48,10,3,16,0.05
2013-5-19,64,52,44,55,16,-46,78,25,1,30.69,30.53,12,4,17,0.04
2013-5-20,73,59,49,63,16,-13,75,18,4,30.52,30.30,10,3,16,0.57
2013-5-21,58,53,50,0,0,0,0,0,100,30.40,30.29,9,2,13,0.67
2013-5-22,56,51,48,0,0,0,0,0,100,30.33,30.23,7,3,10,0.35
2013-5-23,65,56,49,0,-1,-38,1,0,1,30.25,30.14,8,4,14,0.09
2013-5-24,68,59,47,0,0,0,0,0,100,30.18,30.00,12,5,23,1.28
2013-5-25,47,46,43,0,0,0,0,0,100,30.16,30.00,13,6,25,0.80
2013-5-26,53,46,43,46,18,0,83,32,16,30.25,29.94,16,6,22,0.09
2013-5-27,64,52,37,47,24,-26,78,38,5,30.44,30.23,20,7,26,0.00
2013-5-28,72,56,39,45,25,0,68,27,25,30.59,30.44,12,3,19,0.00
2013-5-29,55,52,46,22,1,0,35,2,23,30.51,30.32,5,2,10,0.13
2013-5-30,83,68,54,65,26,-36,73,24,1,30.41,30.29,13,3,25,0.00
2013-5-31,89,75,58,71,36,-34,76,31,1,30.44,30.31,10,3,19,0.00
2013-6-1,92,78,63,73,41,0,77,34,18,30.37,30.21,12,3,16,0.00
2013-6-2,86,73,65,76,30,0,76,28,7,30.23,30.09,19,4,40,0.32
2013-6-3,76,68,61,68,32,0,82,36,9,30.19,30.10,12,4,17,0.00
2013-6-4,63,57,51,54,39,-21,82,56,4,30.37,30.12,17,6,29,0.00
2013-6-5,70,59,48,47,38,21,77,48,27,30.52,30.37,14,4,19,0.00
2013-6-6,71,58,46,52,32,0,78,40,12,30.59,30.48,9,2,13,0.00
2013-6-7,61,55,50,52,16,-45,79,26,1,30.50,30.32,9,3,14,0.57
2013-6-8,68,58,51,56,13,0,65,14,21,30.33,30.05,10,3,16,0.51
2013-6-9,72,63,54,62,32,0,78,37,26,30.52,30.34,12,3,19,0.02
2013-6-10,71,62,51,57,32,-16,74,37,5,30.60,30.50,8,2,10,0.00
2013-6-11,55,54,53,0,0,0,0,0,100,30.27,29.92,13,4,22,1.24
2013-6-12,58,56,53,28,2,-17,31,4,4,30.12,29.86,16,5,21,0.27
2013-6-13,57,55,53,22,10,0,26,14,14,30.11,30.09,4,1,9,0.00
2013-6-14,78,68,55,60,45,0,77,47,16,30.12,30.04,7,3,17,0.27
2013-6-15,72,64,53,52,45,38,81,54,33,30.26,30.09,18,5,23,0.00
2013-6-16,74,63,52,58,33,-20,78,39,3,30.29,30.08,13,3,16,0.05
2013-6-17,75,65,57,63,30,-5,77,33,6,30.23,30.07,11,3,20,0.03
2013-6-18,70,61,54,57,34,0,82,42,17,30.35,30.21,9,2,13,0.00
2013-6-19,75,62,49,53,33,-29,82,38,3,30.48,30.27,9,3,14,0.00
2013-6-20,76,63,47,57,35,-1,80,38,10,30.64,30.48,13,3,15,0.00
2013-6-21,79,65,52,61,33,-26,75,34,3,30.62,30.52,6,2,13,0.00
2013-6-22,76,67,58,68,27,-41,80,33,1,30.60,30.50,7,1,8,0.00
2013-6-23,79,69,64,57,12,-3,47,10,5,30.51,30.35,9,2,12,0.35
2013-6-24,86,75,65,74,40,0,79,38,7,30.35,30.27,11,4,20,0.00
2013-6-25,87,76,66,76,50,0,80,50,14,30.28,30.13,9,2,14,0.13
2013-6-26,74,68,61,45,10,-16,36,7,3,30.25,30.11,10,3,17,0.39
2013-6-27,67,61,58,21,0,-18,17,1,3,30.25,30.21,7,4,11,0.04
2013-6-28,63,60,57,0,0,0,0,0,100,30.22,29.95,12,3,15,1.67
2013-6-29,70,65,62,0,0,0,0,0,100,29.99,29.94,7,2,9,0.14
2013-7-1,71,69,67,0,0,0,0,0,100,30.51,30.48,1,0,7,0.35
2013-7-2,67,60,58,0,0,0,0,0,100,30.59,30.50,7,2,11,0.43
2013-7-3,81,67,58,48,8,0,34,5,13,30.58,30.51,9,2,13,0.55
2013-7-4,89,76,68,78,25,-3,72,22,4,30.62,30.47,7,2,16,0.06
2013-7-5,90,78,69,79,33,0,73,29,6,30.55,30.42,9,3,16,0.01
2013-7-6,84,77,70,74,40,0,75,38,9,30.47,30.37,12,4,17,0.00
2013-7-7,83,76,67,72,44,-31,74,43,1,30.40,30.35,9,3,16,0.00
2013-7-8,75,68,60,51,5,-14,43,6,3,30.45,30.32,10,2,16,0.25
2013-7-9,76,70,64,61,15,-22,60,14,2,30.54,30.47,10,3,13,0.00
2013-7-10,67,64,62,0,0,0,0,0,100,30.47,30.17,9,4,16,0.37
2013-7-11,80,71,66,48,14,0,47,11,8,30.37,30.14,7,2,9,0.35
2013-7-12,78,68,60,65,39,0,78,42,9,30.60,30.38,7,2,12,0.00
2013-7-13,83,70,57,69,38,0,76,36,16,30.76,30.60,11,2,15,0.00
2013-7-14,89,76,62,76,36,-13,75,33,4,30.72,30.59,6,2,9,0.00
2013-7-15,89,78,65,74,43,0,74,37,14,30.62,30.54,9,3,15,0.00
2013-7-16,92,79,69,78,39,-28,74,36,1,30.62,30.50,9,2,12,0.00
2013-7-17,89,78,67,78,35,0,75,32,5,30.60,30.38,11,3,25,0.00
2013-7-18,86,78,69,76,43,-5,77,40,4,30.47,30.36,12,4,15,0.41
2013-7-19,91,78,68,79,32,0,74,28,8,30.35,30.07,20,3,23,0.10
2013-7-20,85,77,70,74,35,-34,76,34,1,30.12,30.03,12,4,14,0.00
2013-7-21,76,71,62,68,56,0,79,63,10,30.41,30.31,7,3,14,0.01
2013-7-22,71,65,57,63,29,-20,79,32,3,30.46,30.32,11,3,13,0.00
2013-7-23,67,62,59,0,0,0,0,0,100,30.31,29.95,6,2,12,2.08
2013-7-24,79,67,56,66,27,-11,80,32,3,30.32,29.95,17,6,24,0.30
2013-7-25,74,62,50,63,32,-27,79,43,3,30.53,30.33,7,2,12,0.00
2013-7-26,71,64,60,34,2,-38,32,6,1,30.49,30.31,9,3,17,0.12
2013-7-27,82,71,61,71,37,-39,76,39,1,30.44,30.29,10,3,13,0.00
2013-7-28,75,67,61,50,9,-35,42,8,1,30.45,30.39,12,3,16,0.02
2013-7-29,75,66,62,35,1,-21,23,1,2,30.44,30.39,6,2,18,0.16
2013-7-30,75,68,60,65,29,0,76,29,7,30.47,30.40,12,3,21,0.01
2013-7-31,80,69,58,67,37,-10,78,36,5,30.52,30.42,9,3,13,0.00
2013-8-1,78,68,59,67,28,-37,78,31,1,30.43,30.26,16,3,19,0.01
2013-8-2,75,65,62,50,8,0,42,6,6,30.25,30.17,10,5,15,0.53
2013-8-4,73,64,56,63,33,-22,70,38,3,30.20,30.14,10,5,15,1.32
2013-8-5,68,62,53,58,45,11,78,56,15,30.35,30.18,17,7,22,0.00
2013-8-6,77,65,52,62,43,-27,79,50,3,30.53,30.35,10,3,13,0.00
2013-8-7,76,65,53,64,33,-6,78,37,6,30.59,30.50,12,3,15,0.00
2013-8-8,70,66,60,0,0,0,0,0,100,30.44,30.41,9,4,13,0.00
2013-8-9,70,67,65,0,0,0,0,0,100,30.41,30.11,12,4,17,4.34
2013-8-10,73,67,58,62,32,-13,78,34,5,30.35,30.12,19,6,26,0.00
2013-8-11,71,59,53,59,22,-19,74,29,4,30.43,30.33,9,2,15,0.00
2013-8-12,78,70,60,64,37,0,75,34,21,30.38,30.28,4,1,11,0.00
2013-8-13,70,64,57,24,0,-36,18,1,1,30.27,30.09,8,2,11,0.64
2013-8-14,72,66,58,63,43,0,79,51,14,30.22,30.03,16,6,26,0.00
2013-8-15,74,65,53,62,38,-26,77,44,3,30.42,30.22,10,4,19,0.00
2013-8-16,77,69,55,63,42,-19,78,43,3,30.55,30.45,7,2,13,0.00
2013-8-17,75,66,57,62,28,-21,76,29,3,30.67,30.55,12,3,15,0.00
2013-8-18,75,64,51,67,24,-7,79,27,5,30.66,30.42,6,1,13,0.00
2013-8-19,81,73,60,69,49,0,79,49,23,30.41,30.32,9,4,16,0.00
2013-8-20,83,73,64,71,36,-17,76,34,3,30.47,30.34,9,2,10,0.00
2013-8-21,86,73,61,73,32,-33,78,30,1,30.55,30.38,10,2,12,0.00
2013-8-22,86,74,63,72,36,0,78,35,8,30.37,30.17,9,2,16,0.00
2013-8-23,75,68,57,63,36,-37,80,43,1,30.50,30.17,17,4,18,0.00
2013-8-24,78,60,50,59,19,-12,76,22,6,30.68,30.51,5,2,7,0.00
2013-8-25,78,64,50,64,30,-12,76,31,5,30.74,30.51,6,2,12,0.00
2013-8-26,75,66,58,48,9,0,39,7,10,30.50,30.25,8,2,14,0.06
2013-8-27,85,71,62,73,28,0,77,27,11,30.33,30.23,6,1,7,0.00
2013-8-28,82,73,64,73,28,-11,77,25,3,30.40,30.29,6,2,23,1.52
2013-8-29,64,62,58,8,-2,-39,11,1,1,30.50,30.38,9,2,16,0.04
2013-8-30,82,68,57,74,20,-11,77,19,4,30.37,30.17,6,1,11,0.00
2013-8-31,80,70,63,62,12,0,54,9,8,30.25,30.15,9,2,12,0.54
2013-9-1,80,73,68,71,26,0,76,25,31,30.32,30.16,9,2,10,0.36
2013-9-2,64,63,63,0,0,0,0,0,100,30.28,30.23,15,6,17,1.38
2013-9-3,77,69,64,40,4,-12,27,3,3,30.17,30.10,10,2,15,0.11
2013-9-4,76,69,62,63,52,0,78,58,20,30.27,30.11,13,5,20,0.01
2013-9-5,65,58,48,52,25,0,79,33,24,30.45,30.22,12,4,21,0.10
2013-9-6,68,55,43,52,28,-23,80,38,5,30.56,30.37,9,3,13,0.00
2013-9-7,72,60,49,62,25,0,79,30,9,30.36,30.14,8,2,12,0.02
2013-9-8,61,58,54,53,20,-10,74,26,6,30.30,30.06,15,5,25,0.14
2013-9-9,66,59,48,54,34,-11,79,44,6,30.53,30.42,10,4,14,0.00
2013-9-10,65,58,49,16,-3,-43,18,2,1,30.43,30.38,6,2,9,0.00
2013-9-11,88,76,62,80,28,0,77,24,8,30.41,30.32,13,4,16,0.22
2013-9-12,74,68,65,0,0,0,0,0,100,30.39,30.05,11,4,18,0.45
2013-9-13,66,63,57,0,0,0,0,0,100,30.07,29.99,12,3,16,1.06
2013-9-14,66,59,50,59,20,-26,81,27,3,30.35,30.07,13,5,16,0.01
2013-9-15,62,52,46,55,13,-18,78,21,5,30.47,30.34,5,2,10,0.00
2013-9-16,59,52,42,48,37,2,82,62,10,30.54,30.37,13,6,18,0.00
2013-9-17,67,51,38,50,29,-13,80,46,7,30.72,30.55,13,2,16,0.00
2013-9-18,72,58,46,56,28,-5,77,33,11,30.61,30.45,8,2,16,0.00
2013-9-19,77,67,52,62,32,0,77,32,24,30.50,30.39,6,2,10,0.00
2013-9-20,76,61,49,63,25,0,80,27,31,30.50,30.36,9,2,11,0.00
2013-9-21,66,59,52,51,9,-13,62,9,4,30.36,30.13,15,6,23,0.00
2013-9-22,72,63,51,61,22,-37,80,30,1,30.11,29.95,16,8,24,0.32
2013-9-23,53,50,44,47,41,23,83,74,35,30.25,30.08,20,8,25,0.00
2013-9-24,53,49,45,47,37,-6,83,67,11,30.23,30.13,16,7,23,0.00
2013-9-25,61,53,48,53,38,11,82,58,22,30.31,30.17,15,3,17,0.00
2013-9-26,66,55,46,58,32,-29,80,48,3,30.47,30.30,9,3,20,0.00
2013-9-27,73,60,53,62,27,-10,79,34,7,30.60,30.47,9,3,12,0.00
2013-9-28,72,58,48,60,18,-44,77,22,1,30.72,30.58,8,2,12,0.00
2013-9-29,68,56,45,58,18,-15,79,22,6,30.59,30.43,8,2,12,0.00
2013-9-30,69,53,43,59,14,-8,79,17,6,30.43,30.29,7,1,9,4.94
2013-10-1,49,49,49,0,0,0,0,0,100,30.29,30.29,2,2,5,0.00
2013-10-2,76,70,60,64,51,0,79,55,15,30.25,30.16,12,5,19,0.00
2013-10-3,72,60,48,53,30,0,81,34,15,30.43,30.24,14,3,18,0.00
2013-10-4,70,58,48,60,28,0,80,34,9,30.47,30.35,6,1,8,0.00
2013-10-5,65,55,49,54,36,-46,82,56,1,30.48,30.43,10,1,11,0.00
2013-10-6,56,50,44,48,32,0,82,54,30,30.62,30.47,11,3,16,0.12
2013-10-7,68,56,48,0,0,0,0,0,100,30.52,30.13,15,4,37,0.94
2013-10-8,61,53,43,45,33,-13,82,52,5,30.67,30.17,20,6,31,0.06
2013-10-9,63,50,36,49,22,-18,80,32,6,30.82,30.65,7,2,10,0.00
2013-10-10,68,55,42,53,25,0,77,30,44,30.64,30.54,7,2,11,0.00
2013-10-11,74,63,52,61,28,0,72,28,31,30.54,30.50,6,1,6,0.00
2013-10-12,57,53,49,17,-1,-32,21,2,2,30.73,30.52,6,1,12,0.00
2013-10-13,56,52,49,26,5,-6,32,8,8,30.78,30.71,7,3,9,0.00
2013-10-14,64,57,50,56,28,-13,82,44,6,30.66,30.57,9,4,12,0.00
2013-10-15,67,56,47,57,17,-43,80,25,1,30.64,30.55,10,3,12,0.00
2013-10-16,62,55,51,54,13,-19,82,18,4,30.53,30.22,9,2,12,0.00
2013-10-17,68,57,48,59,19,-5,78,23,7,30.21,30.04,7,2,12,0.00
2013-10-18,63,56,48,54,29,-30,79,43,2,30.14,29.91,14,5,22,0.65
2013-10-19,62,53,42,51,32,-21,82,51,4,30.23,30.07,8,4,15,0.00
2013-10-20,58,53,46,46,21,0,79,30,33,30.23,29.96,23,6,26,0.01
2013-10-21,60,49,38,46,27,-14,79,46,9,30.38,30.23,10,4,16,0.00
2013-10-22,57,50,43,37,8,-50,67,21,1,30.27,30.01,10,6,23,0.00
2013-10-23,53,44,35,40,21,0,82,37,21,30.05,29.88,9,2,12,0.00
2013-10-24,47,41,32,36,26,-12,83,56,12,30.05,29.87,15,6,23,0.00
2013-10-25,47,41,37,36,32,24,83,70,52,30.32,30.06,16,6,25,0.00
2013-10-26,45,39,32,40,32,22,84,76,53,30.33,30.11,12,4,17,0.00
2013-10-27,52,44,41,40,31,8,82,60,24,30.24,30.05,13,6,24,0.00
2013-10-28,49,39,33,40,28,13,81,65,39,30.57,30.24,22,6,28,0.01
2013-10-29,47,34,24,32,8,-50,84,33,2,30.70,30.55,12,2,12,0.00
2013-10-30,45,38,27,33,20,-19,83,50,12,30.55,30.43,17,4,17,0.00
2013-10-31,48,38,29,18,0,-20,38,3,7,30.46,30.06,7,2,12,0.41
2013-11-1,64,59,49,53,15,0,77,17,15,30.04,29.64,17,8,28,0.51
2013-11-2,61,53,40,49,33,-39,82,55,2,30.08,29.86,10,3,15,0.06
2013-11-3,42,36,29,26,16,-28,68,48,5,30.62,30.08,10,6,18,0.03
2013-11-4,28,26,24,21,20,18,87,79,66,30.82,30.64,5,3,9,0.00
2013-11-5,45,39,34,36,26,-6,84,61,17,30.86,30.71,7,4,13,0.00
2013-11-6,52,46,35,46,16,-37,82,37,2,30.71,30.24,11,6,16,0.00
2013-11-7,54,48,39,38,14,-46,81,32,1,30.23,29.95,17,8,29,0.10
2013-11-8,42,38,33,33,28,24,85,69,51,30.10,30.02,14,6,31,0.00
2013-11-9,36,32,30,29,24,17,86,71,55,30.32,30.31,5,1,6,0.00
2013-11-10,36,33,30,0,0,0,26,1,26,30.30,29.96,7,2,10,0.06
2013-11-11,43,38,35,33,26,0,86,62,25,30.25,29.97,15,6,23,0.00
2013-11-14,43,33,27,34,16,-17,87,44,12,30.28,30.25,4,1,10,0.00
2013-11-15,28,27,27,0,0,0,0,0,100,30.30,30.27,3,0,5,0.00
2013-11-16,55,40,29,36,20,-17,79,43,11,30.59,30.50,6,0,6,0.00
2013-11-17,40,36,29,0,0,0,0,0,100,30.59,30.22,7,0,7,0.15
2013-11-18,59,51,39,55,24,-44,90,39,1,30.19,29.78,22,5,23,0.46
2013-11-19,44,44,44,32,32,32,63,63,63,29.84,29.84,3,3,5,0.00
2013-11-20,38,35,30,14,9,8,52,33,28,30.76,30.70,16,7,21,0.00
2013-11-21,45,36,28,26,17,12,77,46,28,30.80,30.55,6,2,9,0.00
2013-11-22,36,32,26,32,12,-47,98,59,2,30.53,30.01,5,1,9,0.01
2013-11-23,39,32,23,34,18,-24,98,58,7,30.04,29.87,24,6,29,0.02
2013-11-24,24,19,16,15,7,4,69,59,50,30.14,29.86,26,14,48,1.00
2013-11-25,24,19,12,7,4,0,73,53,35,30.46,30.16,19,7,31,2.56
2013-11-26,31,27,22,30,22,7,100,80,47,30.50,30.40,9,3,11,0.02
2013-11-27,56,49,36,29,2,-29,72,12,3,29.92,29.47,12,6,19,1.73
2013-11-28,25,21,17,19,10,5,77,63,46,30.55,29.95,23,9,28,0.00
2013-11-29,24,18,13,14,9,3,100,71,43,30.90,30.55,13,5,17,0.00
2013-11-30,26,19,9,24,13,7,100,82,45,30.96,30.59,10,4,23,0.00
2013-12-1,31,29,27,28,22,14,100,75,52,30.58,30.31,9,2,16,0.01
2013-12-2,33,31,29,14,12,9,52,45,37,30.30,30.15,9,2,10,0.03
2013-12-3,44,35,30,41,19,2,97,58,20,30.15,30.07,7,3,13,0.62
2013-12-4,39,32,25,31,28,14,100,85,62,30.38,30.07,13,4,19,0.01
2013-12-5,32,28,22,19,12,6,64,51,32,30.45,30.12,4,0,6,0.00
2013-12-6,42,37,33,39,19,-2,91,53,18,30.31,30.08,12,4,18,0.52
2013-12-7,34,29,21,25,15,8,74,55,45,30.57,30.28,22,8,32,0.00
2013-12-8,25,21,18,18,9,6,100,62,47,30.74,30.56,10,4,15,0.00
2013-12-9,21,19,18,21,16,10,100,86,68,30.71,30.03,8,3,13,0.00
2013-12-10,31,25,18,29,17,13,92,72,62,30.06,29.91,10,5,20,0.00
2013-12-11,26,20,14,20,14,8,100,79,45,30.26,30.06,16,5,24,0.00
2013-12-12,15,10,4,14,1,-5,100,70,46,30.40,30.11,17,5,21,0.00
2013-12-13,18,10,0,15,1,-6,100,69,43,30.49,30.03,20,8,30,2.56
2013-12-14,11,3,-5,-3,-6,-9,100,68,42,30.71,30.50,9,2,10,0.00
2013-12-15,16,12,6,16,12,6,100,100,100,29.96,29.61,12,4,23,0.00
2013-12-16,17,8,-2,13,1,-6,100,77,44,30.30,29.77,25,6,29,0.00
2013-12-17,11,5,-15,7,0,-15,100,80,52,30.40,30.20,7,2,12,0.00
2013-12-18,31,18,7,22,15,7,100,89,62,30.18,29.99,11,3,17,0.00
2013-12-19,30,26,16,28,25,16,100,95,90,30.22,30.06,7,4,10,0.00
2013-12-20,32,29,26,32,28,26,100,97,88,30.27,30.09,6,1,9,0.00
2013-12-21,31,27,23,30,26,21,100,95,79,30.13,29.99,7,2,9,0.00
2013-12-22,31,25,22,27,24,22,100,96,73,30.24,30.06,9,3,13,0.00
2013-12-23,29,25,23,26,23,22,100,94,81,30.28,30.16,2,1,6,0.00
2013-12-26,16,14,8,16,14,8,100,100,100,30.28,30.23,1,0,4,0.00
2013-12-27,28,20,9,28,20,9,100,100,100,30.33,30.24,5,1,7,0.09
2013-12-28,30,22,11,30,22,11,100,100,89,30.28,30.09,6,2,10,0.00
2013-12-29,33,26,19,30,23,19,100,90,75,30.15,29.75,9,2,12,0.00
2013-12-30,30,16,0,30,14,-1,100,91,69,30.29,29.70,17,5,32,0.00
2013-12-31,9,-2,-9,6,-2,-9,100,98,76,30.28,30.13,12,1,14,0.00
2014-1-1,15,3,-12,14,0,-12,100,89,63,30.51,30.17,13,4,20,0.00
2014-1-2,-1,-6,-10,-4,-7,-10,100,97,87,30.53,30.13,15,5,19,0.00